createdAt,value
2018-12-30T00:00:44.879Z,6.60
2018-12-30T00:03:13.448Z,6.60
2018-12-30T00:05:42.296Z,6.60
2018-12-30T00:08:10.862Z,6.60
2018-12-30T00:10:39.878Z,6.60
2018-12-30T00:13:08.435Z,6.60
2018-12-30T00:15:37.113Z,6.60
2018-12-30T00:18:06.160Z,6.60
2018-12-30T00:20:35.110Z,6.50
2018-12-30T00:23:03.740Z,6.50
2018-12-30T00:25:32.303Z,6.50
2018-12-30T00:28:01.231Z,6.50
2018-12-30T00:30:29.892Z,6.50
2018-12-30T00:33:01.146Z,6.50
2018-12-30T00:35:29.689Z,6.60
2018-12-30T00:37:58.342Z,6.60
2018-12-30T00:40:26.910Z,6.60
2018-12-30T00:42:55.696Z,6.60
2018-12-30T00:45:24.266Z,6.60
2018-12-30T00:47:52.935Z,6.60
2018-12-30T00:50:21.561Z,6.60
2018-12-30T00:52:50.528Z,6.60
2018-12-30T00:55:19.191Z,6.70
2018-12-30T00:57:47.750Z,6.70
2018-12-30T01:00:16.703Z,6.70
2018-12-30T01:02:45.276Z,6.70
2018-12-30T01:05:13.920Z,6.70
2018-12-30T01:07:42.782Z,6.70
2018-12-30T01:10:11.830Z,6.70
2018-12-30T01:12:40.391Z,6.70
2018-12-30T01:15:09.429Z,6.70
2018-12-30T01:17:38.148Z,6.70
2018-12-30T01:20:06.767Z,6.70
2018-12-30T01:22:35.421Z,6.70
2018-12-30T01:25:04.126Z,6.70
2018-12-30T01:27:32.790Z,6.70
2018-12-30T01:30:01.349Z,6.70
2018-12-30T01:32:31.393Z,6.70
2018-12-30T01:35:00.351Z,6.60
2018-12-30T01:37:28.999Z,6.60
2018-12-30T01:39:57.626Z,6.60
2018-12-30T01:42:26.274Z,6.70
2018-12-30T01:44:54.836Z,6.70
2018-12-30T01:47:25.107Z,6.60
2018-12-30T01:49:53.661Z,6.60
2018-12-30T01:52:22.215Z,6.70
2018-12-30T01:54:50.965Z,6.60
2018-12-30T01:57:19.595Z,6.70
2018-12-30T01:59:48.155Z,6.70
2018-12-30T02:02:16.803Z,6.70
2018-12-30T02:04:45.353Z,6.70
2018-12-30T02:07:14.390Z,6.70
2018-12-30T02:09:42.946Z,6.70
2018-12-30T02:12:12.064Z,6.70
2018-12-30T02:14:40.629Z,6.70
2018-12-30T02:17:12.223Z,6.70
2018-12-30T02:19:40.802Z,6.70
2018-12-30T02:22:09.721Z,6.70
2018-12-30T02:24:38.417Z,6.70
2018-12-30T02:27:07.042Z,6.70
2018-12-30T02:29:35.603Z,6.70
2018-12-30T02:32:04.363Z,6.70
2018-12-30T02:34:41.599Z,6.70
2018-12-30T02:37:10.905Z,6.70
2018-12-30T02:39:39.475Z,6.70
2018-12-30T02:42:09.711Z,6.70
2018-12-30T02:44:38.270Z,6.70
2018-12-30T02:47:06.973Z,6.70
2018-12-30T02:49:36.114Z,6.70
2018-12-30T02:52:05.375Z,6.70
2018-12-30T02:54:33.933Z,6.60
2018-12-30T02:57:02.950Z,6.60
2018-12-30T02:59:31.504Z,6.60
2018-12-30T03:02:00.457Z,6.60
2018-12-30T03:04:29.128Z,6.50
2018-12-30T03:06:57.698Z,6.50
2018-12-30T03:09:26.863Z,6.50
2018-12-30T03:11:55.426Z,6.50
2018-12-30T03:14:24.383Z,6.50
2018-12-30T03:16:52.949Z,6.50
2018-12-30T03:19:21.959Z,6.50
2018-12-30T03:21:58.967Z,6.50
2018-12-30T03:24:21.385Z,6.50
2018-12-30T03:26:51.008Z,6.50
2018-12-30T03:29:19.842Z,6.50
2018-12-30T03:31:48.389Z,6.50
2018-12-30T03:34:17.339Z,6.50
2018-12-30T03:36:45.908Z,6.50
2018-12-30T03:39:14.566Z,6.50
2018-12-30T03:41:43.125Z,6.50
2018-12-30T03:44:12.086Z,6.50
2018-12-30T03:46:40.654Z,6.50
2018-12-30T03:49:09.574Z,6.50
2018-12-30T03:51:38.180Z,6.50
2018-12-30T03:54:06.802Z,6.50
2018-12-30T03:56:35.437Z,6.50
2018-12-30T03:59:03.997Z,6.50
2018-12-30T04:01:33.081Z,6.50
2018-12-30T04:04:01.729Z,6.50
2018-12-30T04:06:30.276Z,6.50
2018-12-30T04:08:59.320Z,6.50
2018-12-30T04:11:28.259Z,6.50
2018-12-30T04:13:56.814Z,6.50
2018-12-30T04:16:25.460Z,6.50
2018-12-30T04:18:54.012Z,6.50
2018-12-30T04:21:23.194Z,6.50
2018-12-30T04:23:51.764Z,6.50
2018-12-30T04:26:20.406Z,6.60
2018-12-30T04:28:48.971Z,6.60
2018-12-30T04:31:17.596Z,6.60
2018-12-30T04:33:46.207Z,6.60
2018-12-30T04:36:14.849Z,6.60
2018-12-30T04:38:43.410Z,6.70
2018-12-30T04:41:12.249Z,6.70
2018-12-30T04:43:40.805Z,6.70
2018-12-30T04:46:09.455Z,6.70
2018-12-30T04:48:38.339Z,6.70
2018-12-30T04:51:06.964Z,6.80
2018-12-30T04:53:35.526Z,6.80
2018-12-30T04:56:04.175Z,6.80
2018-12-30T04:58:32.729Z,6.80
2018-12-30T05:01:01.637Z,6.80
2018-12-30T05:03:30.209Z,6.80
2018-12-30T05:05:58.849Z,6.90
2018-12-30T05:08:27.411Z,6.90
2018-12-30T05:10:56.051Z,6.90
2018-12-30T05:13:24.607Z,6.90
2018-12-30T05:15:53.507Z,6.90
2018-12-30T05:18:24.985Z,7.00
2018-12-30T05:20:53.696Z,7.00
2018-12-30T05:23:22.627Z,7.00
2018-12-30T05:25:51.271Z,7.00
2018-12-30T05:28:19.837Z,7.10
2018-12-30T05:30:48.541Z,7.10
2018-12-30T05:33:17.105Z,7.10
2018-12-30T05:35:45.738Z,7.10
2018-12-30T05:38:14.299Z,7.10
2018-12-30T05:40:43.482Z,7.10
2018-12-30T05:43:12.041Z,7.10
2018-12-30T05:45:40.600Z,7.20
2018-12-30T05:48:09.844Z,7.20
2018-12-30T05:50:38.400Z,7.20
2018-12-30T05:53:07.043Z,7.20
2018-12-30T05:55:35.701Z,7.20
2018-12-30T05:58:04.259Z,7.10
2018-12-30T06:00:33.172Z,7.10
2018-12-30T06:03:01.808Z,7.10
2018-12-30T06:05:30.366Z,7.00
2018-12-30T06:07:59.267Z,7.00
2018-12-30T06:10:30.815Z,7.00
2018-12-30T06:12:59.466Z,7.00
2018-12-30T06:15:28.036Z,7.00
2018-12-30T06:17:58.720Z,6.90
2018-12-30T06:20:27.262Z,6.90
2018-12-30T06:22:56.067Z,6.90
2018-12-30T06:25:24.623Z,6.80
2018-12-30T06:27:53.572Z,6.80
2018-12-30T06:30:22.206Z,6.80
2018-12-30T06:32:50.852Z,6.80
2018-12-30T06:35:19.410Z,6.80
2018-12-30T06:37:48.038Z,6.80
2018-12-30T06:40:16.599Z,6.80
2018-12-30T06:42:45.234Z,6.80
2018-12-30T06:45:14.126Z,6.80
2018-12-30T06:47:43.120Z,6.70
2018-12-30T06:50:12.138Z,6.70
2018-12-30T06:52:40.798Z,6.70
2018-12-30T06:55:09.360Z,6.70
2018-12-30T06:57:38.017Z,6.70
2018-12-30T07:00:07.099Z,6.70
2018-12-30T07:02:38.714Z,6.70
2018-12-30T07:05:07.437Z,6.70
2018-12-30T07:07:35.914Z,6.70
2018-12-30T07:10:05.708Z,6.70
2018-12-30T07:12:34.340Z,6.70
2018-12-30T07:15:03.009Z,6.70
2018-12-30T07:17:31.562Z,6.70
2018-12-30T07:20:00.250Z,6.70
2018-12-30T07:22:28.748Z,6.70
2018-12-30T07:24:57.382Z,6.70
2018-12-30T07:27:25.941Z,6.70
2018-12-30T07:29:55.076Z,6.70
2018-12-30T07:32:23.622Z,6.70
2018-12-30T07:34:52.261Z,6.60
2018-12-30T07:37:20.812Z,6.70
2018-12-30T07:39:49.445Z,6.70
2018-12-30T07:42:17.999Z,6.60
2018-12-30T07:44:46.634Z,6.60
2018-12-30T07:47:15.195Z,6.60
2018-12-30T07:49:44.563Z,6.60
2018-12-30T07:52:13.123Z,6.60
2018-12-30T07:54:41.808Z,6.60
2018-12-30T07:57:10.359Z,6.60
2018-12-30T07:59:39.033Z,6.60
2018-12-30T08:02:07.603Z,6.60
2018-12-30T08:04:36.264Z,6.60
2018-12-30T08:07:05.158Z,6.60
2018-12-30T08:09:33.829Z,6.60
2018-12-30T08:12:02.501Z,6.60
2018-12-30T08:14:31.067Z,6.60
2018-12-30T08:16:59.749Z,6.60
2018-12-30T08:19:28.305Z,6.60
2018-12-30T08:21:56.983Z,6.60
2018-12-30T08:24:25.545Z,6.60
2018-12-30T08:26:55.884Z,6.50
2018-12-30T08:29:24.666Z,6.60
2018-12-30T08:31:53.364Z,6.60
2018-12-30T08:34:21.925Z,6.60
2018-12-30T08:36:50.598Z,6.60
2018-12-30T08:39:19.162Z,6.60
2018-12-30T08:41:48.206Z,6.60
2018-12-30T08:44:16.760Z,6.60
2018-12-30T08:46:45.802Z,6.60
2018-12-30T08:49:14.687Z,6.50
2018-12-30T08:51:43.397Z,6.60
2018-12-30T08:54:11.953Z,6.60
2018-12-30T08:56:40.959Z,6.50
2018-12-30T08:59:09.513Z,6.50
2018-12-30T09:01:38.500Z,6.50
2018-12-30T09:04:07.068Z,6.50
2018-12-30T09:06:35.872Z,6.50
2018-12-30T09:09:06.988Z,6.50
2018-12-30T09:11:35.986Z,6.50
2018-12-30T09:14:04.540Z,6.50
2018-12-30T09:16:33.104Z,6.50
2018-12-30T09:19:03.396Z,6.50
2018-12-30T09:21:31.953Z,6.50
2018-12-30T09:24:00.932Z,6.50
2018-12-30T09:26:29.505Z,6.50
2018-12-30T09:28:58.349Z,6.50
2018-12-30T09:31:26.914Z,6.50
2018-12-30T09:33:55.605Z,6.50
2018-12-30T09:36:24.152Z,6.50
2018-12-30T09:38:52.848Z,6.60
2018-12-30T09:41:21.476Z,6.60
2018-12-30T09:43:50.168Z,6.60
2018-12-30T09:46:18.713Z,6.60
2018-12-30T09:48:47.629Z,6.60
2018-12-30T09:51:16.464Z,6.70
2018-12-30T09:53:45.468Z,6.70
2018-12-30T09:56:14.301Z,6.70
2018-12-30T09:58:42.966Z,6.70
2018-12-30T10:01:11.542Z,6.80
2018-12-30T10:03:40.462Z,6.80
2018-12-30T10:06:09.039Z,6.80
2018-12-30T10:08:37.717Z,6.80
2018-12-30T10:11:06.284Z,6.80
2018-12-30T10:13:35.460Z,6.80
2018-12-30T10:16:04.092Z,6.80
2018-12-30T10:18:32.788Z,6.90
2018-12-30T10:21:01.350Z,6.90
2018-12-30T10:23:30.458Z,7.00
2018-12-30T10:25:59.019Z,7.00
2018-12-30T10:28:28.259Z,7.00
2018-12-30T10:30:56.825Z,7.00
2018-12-30T10:33:25.390Z,7.10
2018-12-30T10:35:54.293Z,7.00
2018-12-30T10:38:22.850Z,7.00
2018-12-30T10:40:51.870Z,7.00
2018-12-30T10:43:22.017Z,7.10
2018-12-30T10:45:50.614Z,7.00
2018-12-30T10:48:19.365Z,7.10
2018-12-30T10:50:48.311Z,7.10
2018-12-30T10:53:17.279Z,7.10
2018-12-30T10:56:06.773Z,7.10
2018-12-30T10:58:35.323Z,7.10
2018-12-30T11:01:04.036Z,7.20
2018-12-30T11:03:32.586Z,7.20
2018-12-30T11:06:01.150Z,7.20
2018-12-30T11:08:31.370Z,7.20
2018-12-30T11:10:59.933Z,7.30
2018-12-30T11:13:29.159Z,7.30
2018-12-30T11:15:57.849Z,7.30
2018-12-30T11:18:26.477Z,7.40
2018-12-30T11:20:55.424Z,7.40
2018-12-30T11:23:23.978Z,7.50
2018-12-30T11:25:53.097Z,7.50
2018-12-30T11:28:21.649Z,7.50
2018-12-30T11:30:50.495Z,7.60
2018-12-30T11:33:19.061Z,7.60
2018-12-30T11:35:47.767Z,7.70
2018-12-30T11:38:16.446Z,7.80
2018-12-30T11:40:45.010Z,7.80
2018-12-30T11:43:14.065Z,7.80
2018-12-30T11:45:42.754Z,7.80
2018-12-30T11:48:11.383Z,7.80
2018-12-30T11:50:40.522Z,7.80
2018-12-30T11:53:09.199Z,7.80
2018-12-30T11:55:38.016Z,7.80
2018-12-30T11:58:06.608Z,7.80
2018-12-30T12:00:35.736Z,7.80
2018-12-30T12:03:04.275Z,7.80
2018-12-30T12:05:33.005Z,7.80
2018-12-30T12:08:01.560Z,7.80
2018-12-30T12:10:30.272Z,7.80
2018-12-30T12:12:58.839Z,7.80
2018-12-30T12:15:27.515Z,7.80
2018-12-30T12:17:56.142Z,7.80
2018-12-30T12:20:25.219Z,7.90
2018-12-30T12:22:53.764Z,7.90
2018-12-30T12:25:22.530Z,8.00
2018-12-30T12:27:51.091Z,8.00
2018-12-30T12:30:19.751Z,8.10
2018-12-30T12:32:48.375Z,8.10
2018-12-30T12:35:17.329Z,8.10
2018-12-30T12:37:45.888Z,8.10
2018-12-30T12:40:14.575Z,8.10
2018-12-30T12:42:43.137Z,8.20
2018-12-30T12:45:11.802Z,8.20
2018-12-30T12:47:59.715Z,8.20
2018-12-30T12:50:28.897Z,8.30
2018-12-30T12:52:57.619Z,8.30
2018-12-30T12:55:26.189Z,8.30
2018-12-30T12:57:55.080Z,8.20
2018-12-30T13:00:23.766Z,8.20
2018-12-30T13:02:52.374Z,8.20
2018-12-30T13:05:21.477Z,8.20
2018-12-30T13:07:50.043Z,8.20
2018-12-30T13:10:18.716Z,8.20
2018-12-30T13:12:47.938Z,8.20
2018-12-30T13:15:16.977Z,8.20
2018-12-30T13:17:45.703Z,8.10
2018-12-30T13:20:14.296Z,8.10
2018-12-30T13:22:43.530Z,8.00
2018-12-30T13:25:12.231Z,8.00
2018-12-30T13:27:40.928Z,8.00
2018-12-30T13:30:09.642Z,8.00
2018-12-30T13:32:38.268Z,8.00
2018-12-30T13:35:07.194Z,8.10
2018-12-30T13:37:35.909Z,8.10
2018-12-30T13:40:05.104Z,8.10
2018-12-30T13:42:36.665Z,8.10
2018-12-30T13:45:06.868Z,8.10
2018-12-30T13:47:35.582Z,8.10
2018-12-30T13:50:05.303Z,8.10
2018-12-30T13:52:33.997Z,8.10
2018-12-30T13:55:05.587Z,8.10
2018-12-30T13:57:34.251Z,8.10
2018-12-30T14:00:02.975Z,8.10
2018-12-30T14:02:33.300Z,8.10
2018-12-30T14:05:01.859Z,8.10
2018-12-30T14:07:32.923Z,8.10
2018-12-30T14:10:01.512Z,8.10
2018-12-30T14:12:30.518Z,8.00
2018-12-30T14:14:59.119Z,8.00
2018-12-30T14:17:28.262Z,8.00
2018-12-30T14:19:56.835Z,8.00
2018-12-30T14:22:25.535Z,7.90
2018-12-30T14:24:55.499Z,7.90
2018-12-30T14:27:24.392Z,7.90
2018-12-30T14:29:52.995Z,7.90
2018-12-30T14:32:21.545Z,7.90
2018-12-30T14:34:50.290Z,7.90
2018-12-30T14:37:18.856Z,7.90
2018-12-30T14:39:47.887Z,7.80
2018-12-30T14:42:16.599Z,7.80
2018-12-30T14:44:45.259Z,7.80
2018-12-30T14:47:13.796Z,7.80
2018-12-30T14:49:42.571Z,7.90
2018-12-30T14:52:12.713Z,7.80
2018-12-30T14:54:41.274Z,7.80
2018-12-30T14:57:10.226Z,7.80
2018-12-30T14:59:39.000Z,7.90
2018-12-30T15:02:07.692Z,7.80
2018-12-30T15:04:36.280Z,7.90
2018-12-30T15:07:05.057Z,7.80
2018-12-30T15:09:35.882Z,7.80
2018-12-30T15:12:04.117Z,7.80
2018-12-30T15:14:32.779Z,7.80
2018-12-30T15:17:01.328Z,7.80
2018-12-30T15:19:31.561Z,7.80
2018-12-30T15:22:00.194Z,7.80
2018-12-30T15:24:29.341Z,7.80
2018-12-30T15:26:57.899Z,7.80
2018-12-30T15:29:27.001Z,7.80
2018-12-30T15:31:55.582Z,7.80
2018-12-30T15:34:26.058Z,7.80
2018-12-30T15:36:54.522Z,7.80
2018-12-30T15:39:23.292Z,7.80
2018-12-30T15:41:51.850Z,7.80
2018-12-30T15:44:20.864Z,7.70
2018-12-30T15:46:49.445Z,7.80
2018-12-30T15:49:18.115Z,7.80
2018-12-30T15:51:46.769Z,7.80
2018-12-30T15:54:15.828Z,7.80
2018-12-30T15:56:44.390Z,7.70
2018-12-30T15:59:13.046Z,7.70
2018-12-30T16:01:41.627Z,7.70
2018-12-30T16:04:20.713Z,7.70
2018-12-30T16:06:40.672Z,7.70
2018-12-30T16:09:09.299Z,7.70
2018-12-30T16:11:38.214Z,7.70
2018-12-30T16:14:07.222Z,7.70
2018-12-30T16:16:36.242Z,7.80
2018-12-30T16:19:04.806Z,7.70
2018-12-30T16:21:33.466Z,7.80
2018-12-30T16:24:02.023Z,7.80
2018-12-30T16:26:30.741Z,7.80
2018-12-30T16:28:59.447Z,7.80
2018-12-30T16:31:28.323Z,7.80
2018-12-30T16:33:57.458Z,7.80
2018-12-30T16:36:26.158Z,7.80
2018-12-30T16:38:54.983Z,7.80
2018-12-30T16:41:23.624Z,7.80
2018-12-30T16:43:52.271Z,7.80
2018-12-30T16:46:20.837Z,7.80
2018-12-30T16:48:49.801Z,7.80
2018-12-30T16:51:18.401Z,7.80
2018-12-30T16:53:47.423Z,7.80
2018-12-30T16:56:15.987Z,7.80
2018-12-30T16:58:44.924Z,7.80
2018-12-30T17:01:13.479Z,7.90
2018-12-30T17:03:42.115Z,7.80
2018-12-30T17:06:10.881Z,7.80
2018-12-30T17:08:39.456Z,7.80
2018-12-30T17:11:08.562Z,7.80
2018-12-30T17:13:37.509Z,7.80
2018-12-30T17:16:06.252Z,7.80
2018-12-30T17:18:34.820Z,7.80
2018-12-30T17:21:03.503Z,7.80
2018-12-30T17:23:32.270Z,7.80
2018-12-30T17:26:01.159Z,7.80
2018-12-30T17:28:29.731Z,7.80
2018-12-30T17:30:58.764Z,7.70
2018-12-30T17:33:27.322Z,7.70
2018-12-30T17:35:56.335Z,7.60
2018-12-30T17:38:24.903Z,7.60
2018-12-30T17:41:01.367Z,7.60
2018-12-30T17:43:23.956Z,7.60
2018-12-30T17:45:52.517Z,7.60
2018-12-30T17:48:24.108Z,7.50
2018-12-30T17:50:52.663Z,7.50
2018-12-30T17:53:21.964Z,7.50
2018-12-30T17:55:50.934Z,7.40
2018-12-30T17:58:19.762Z,7.40
2018-12-30T18:00:48.383Z,7.40
2018-12-30T18:03:17.415Z,7.40
2018-12-30T18:05:45.977Z,7.40
2018-12-30T18:08:15.100Z,7.50
2018-12-30T18:10:43.738Z,7.50
2018-12-30T18:13:12.699Z,7.50
2018-12-30T18:15:41.255Z,7.50
2018-12-30T18:18:10.076Z,7.50
2018-12-30T18:20:38.657Z,7.50
2018-12-30T18:23:07.777Z,7.50
2018-12-30T18:25:36.349Z,7.50
2018-12-30T18:28:05.507Z,7.50
2018-12-30T18:30:34.077Z,7.50
2018-12-30T18:33:02.641Z,7.50
2018-12-30T18:35:31.306Z,7.50
2018-12-30T18:38:00.232Z,7.50
2018-12-30T18:40:31.678Z,7.50
2018-12-30T18:43:00.588Z,7.50
2018-12-30T18:45:29.145Z,7.50
2018-12-30T18:47:58.463Z,7.60
2018-12-30T18:50:27.036Z,7.60
2018-12-30T18:52:55.952Z,7.60
2018-12-30T18:55:24.623Z,7.60
2018-12-30T18:57:53.628Z,7.60
2018-12-30T19:00:22.258Z,7.60
2018-12-30T19:02:51.204Z,7.60
2018-12-30T19:05:19.775Z,7.60
2018-12-30T19:07:48.440Z,7.60
2018-12-30T19:10:17.063Z,7.60
2018-12-30T19:12:45.725Z,7.60
2018-12-30T19:15:14.269Z,7.60
2018-12-30T19:17:44.346Z,7.70
2018-12-30T19:20:13.228Z,7.60
2018-12-30T19:22:41.808Z,7.70
2018-12-30T19:25:10.535Z,7.70
2018-12-30T19:27:39.081Z,7.70
2018-12-30T19:30:10.075Z,7.60
2018-12-30T19:32:38.630Z,7.60
2018-12-30T19:35:07.606Z,7.50
2018-12-30T19:37:36.156Z,7.50
2018-12-30T19:40:07.820Z,7.40
2018-12-30T19:42:36.387Z,7.50
2018-12-30T19:45:06.499Z,7.40
2018-12-30T19:47:35.046Z,7.40
2018-12-30T19:50:04.436Z,7.50
2018-12-30T19:52:33.374Z,7.40
2018-12-30T19:55:03.607Z,7.40
2018-12-30T19:57:36.895Z,7.50
2018-12-30T20:00:07.464Z,7.50
2018-12-30T20:02:36.119Z,7.40
2018-12-30T20:05:05.529Z,7.40
2018-12-30T20:07:34.090Z,7.40
2018-12-30T20:10:06.534Z,7.40
2018-12-30T20:12:35.092Z,7.40
2018-12-30T20:15:04.288Z,7.40
2018-12-30T20:17:32.860Z,7.40
2018-12-30T20:20:02.303Z,7.40
2018-12-30T20:22:31.270Z,7.40
2018-12-30T20:24:59.984Z,7.30
2018-12-30T20:27:48.026Z,7.30
2018-12-30T20:30:16.594Z,7.30
2018-12-30T20:32:45.263Z,7.20
2018-12-30T20:35:13.846Z,7.20
2018-12-30T20:37:42.835Z,7.20
2018-12-30T20:40:11.762Z,7.20
2018-12-30T20:42:40.312Z,7.10
2018-12-30T20:45:08.889Z,7.10
2018-12-30T20:47:37.534Z,7.10
2018-12-30T20:50:06.970Z,7.00
2018-12-30T20:52:36.400Z,7.00
2018-12-30T20:55:05.306Z,7.00
2018-12-30T20:57:33.954Z,6.90
2018-12-30T21:00:04.049Z,6.90
2018-12-30T21:02:32.708Z,6.90
2018-12-30T21:05:01.341Z,6.90
2018-12-30T21:07:30.134Z,6.90
2018-12-30T21:09:58.703Z,6.90
2018-12-30T21:12:27.497Z,6.90
2018-12-30T21:14:56.061Z,6.80
2018-12-30T21:17:24.956Z,6.80
2018-12-30T21:19:53.610Z,6.90
2018-12-30T21:22:22.365Z,6.90
2018-12-30T21:24:50.915Z,6.90
2018-12-30T21:27:19.596Z,6.90
2018-12-30T21:29:48.153Z,6.80
2018-12-30T21:32:17.013Z,6.80
2018-12-30T21:34:45.580Z,6.80
2018-12-30T21:37:14.206Z,6.80
2018-12-30T21:39:42.778Z,6.80
2018-12-30T21:42:11.456Z,6.80
2018-12-30T21:44:40.117Z,6.80
2018-12-30T21:47:08.682Z,6.80
2018-12-30T21:49:37.256Z,6.80
2018-12-30T21:52:08.286Z,6.70
2018-12-30T21:54:38.358Z,6.70
2018-12-30T21:57:07.059Z,6.70
2018-12-30T21:59:35.669Z,6.70
2018-12-30T22:02:05.015Z,6.70
2018-12-30T22:04:33.588Z,6.70
2018-12-30T22:07:02.224Z,6.70
2018-12-30T22:09:30.790Z,6.70
2018-12-30T22:11:59.363Z,6.80
2018-12-30T22:14:29.474Z,6.80
2018-12-30T22:16:58.055Z,6.70
2018-12-30T22:19:26.754Z,6.80
2018-12-30T22:21:55.430Z,6.80
2018-12-30T22:24:24.076Z,6.80
2018-12-30T22:26:52.648Z,6.80
2018-12-30T22:29:21.303Z,6.90
2018-12-30T22:31:49.861Z,6.90
2018-12-30T22:34:18.465Z,6.80
2018-12-30T22:36:47.260Z,6.90
2018-12-30T22:39:15.944Z,6.90
2018-12-30T22:41:44.554Z,6.80
2018-12-30T22:44:15.151Z,6.90
2018-12-30T22:46:43.776Z,6.80
2018-12-30T22:49:12.427Z,6.80
2018-12-30T22:51:40.986Z,6.80
2018-12-30T22:54:09.878Z,6.80
2018-12-30T22:56:38.459Z,6.80
2018-12-30T22:59:07.259Z,6.70
2018-12-30T23:01:35.876Z,6.70
2018-12-30T23:04:04.577Z,6.60
2018-12-30T23:06:33.142Z,6.60
2018-12-30T23:09:02.212Z,6.60
2018-12-30T23:11:30.754Z,6.50
2018-12-30T23:14:00.386Z,6.50
2018-12-30T23:16:28.942Z,6.50
2018-12-30T23:18:57.606Z,6.50
2018-12-30T23:21:26.239Z,6.40
2018-12-30T23:23:55.225Z,6.40
2018-12-30T23:26:23.786Z,6.40
2018-12-30T23:28:52.723Z,6.40
2018-12-30T23:31:21.272Z,6.40
2018-12-30T23:33:50.282Z,6.40
2018-12-30T23:36:21.810Z,6.40
2018-12-30T23:38:50.726Z,6.40
2018-12-30T23:41:19.298Z,6.40
2018-12-30T23:43:48.034Z,6.40
2018-12-30T23:46:16.586Z,6.40
2018-12-30T23:48:45.676Z,6.40
2018-12-30T23:51:14.255Z,6.40
2018-12-30T23:53:43.712Z,6.40
2018-12-30T23:56:12.288Z,6.30
2018-12-30T23:58:40.936Z,6.40
